Time;durP1;ratioP1;P1;durP2;ratioP2;P2;SDS_P1;SDS_P2;PMS_P1;PMS_P2;Temp;Humidity;BMP_temperature;BMP_pressure;BME280_temperature;BME280_humidity;BME280_pressure;Samples;Min_cycle;Max_cycle;Signal;HPM_P1;HPM_P2
2023/02/11 00:00:06;;;;;;;1999.90;999.90;;;;;;;-3.92;100.00;99960.72;5012095;28;20458;-75
2023/02/11 00:02:32;;;;;;;1999.90;999.90;;;;;;;-4.10;100.00;99957.19;5010995;28;20116;-74
2023/02/11 00:04:58;;;;;;;1999.90;999.90;;;;;;;-4.01;100.00;99960.81;5011024;28;20034;-75
2023/02/11 00:07:23;;;;;;;1999.90;999.90;;;;;;;-4.20;100.00;99934.25;5011172;28;20479;-75
2023/02/11 00:09:49;;;;;;;1999.90;999.90;;;;;;;-4.19;100.00;99949.25;5011016;28;20033;-74
2023/02/11 00:12:14;;;;;;;1999.90;999.90;;;;;;;-4.24;100.00;99954.22;5011272;28;20034;-75
2023/02/11 00:14:40;;;;;;;1999.90;999.90;;;;;;;-4.30;100.00;99945.00;5011315;28;20034;-76
2023/02/11 00:17:05;;;;;;;1999.90;999.90;;;;;;;-4.30;100.00;99955.69;5010930;28;20436;-75
2023/02/11 00:19:31;;;;;;;1999.90;999.90;;;;;;;-4.21;100.00;99953.91;5010619;28;20026;-75
2023/02/11 00:21:56;;;;;;;1999.90;999.90;;;;;;;-4.29;100.00;99943.19;5010553;28;20030;-75
2023/02/11 00:24:21;;;;;;;1999.90;999.90;;;;;;;-4.34;100.00;99954.28;5011052;28;20111;-75
2023/02/11 00:26:47;;;;;;;1999.90;999.90;;;;;;;-4.32;100.00;99946.16;4993131;28;20038;-75
2023/02/11 00:29:12;;;;;;;1999.90;999.90;;;;;;;-4.30;100.00;99954.84;5010620;28;20128;-74
2023/02/11 00:31:37;;;;;;;1999.90;999.90;;;;;;;-4.35;100.00;99942.78;5010908;28;20119;-74
2023/02/11 00:34:03;;;;;;;1999.90;999.90;;;;;;;-4.29;100.00;99948.50;5008904;28;20394;-75
2023/02/11 00:36:29;;;;;;;1999.90;999.90;;;;;;;-4.23;100.00;99950.56;5011406;28;20034;-74
2023/02/11 00:38:56;;;;;;;1999.90;999.90;;;;;;;-4.22;100.00;99949.56;5010847;28;20053;-75
2023/02/11 00:41:22;;;;;;;1999.90;999.90;;;;;;;-4.29;100.00;99952.00;5011023;28;20041;-75
2023/02/11 00:43:48;;;;;;;1999.90;999.90;;;;;;;-4.44;100.00;99959.69;5011057;28;20761;-75
2023/02/11 00:46:14;;;;;;;1999.90;999.90;;;;;;;-4.49;100.00;99943.31;5010618;28;20386;-75
2023/02/11 00:48:39;;;;;;;1999.90;999.90;;;;;;;-4.44;100.00;99966.84;5010905;28;20053;-75
2023/02/11 00:51:06;;;;;;;1999.90;999.90;;;;;;;-4.40;100.00;99961.09;5010852;28;20045;-75
2023/02/11 00:53:32;;;;;;;1999.90;999.90;;;;;;;-4.51;100.00;99963.13;4993434;28;20057;-75
2023/02/11 00:55:57;;;;;;;1999.90;999.90;;;;;;;-4.56;100.00;99952.03;5010841;28;20199;-74
2023/02/11 00:58:22;;;;;;;1999.90;999.90;;;;;;;-4.57;100.00;99945.88;5012027;28;20022;-75
2023/02/11 01:00:48;;;;;;;1999.90;999.90;;;;;;;-4.65;100.00;99940.44;4993453;28;20053;-74
2023/02/11 01:03:14;;;;;;;1999.90;999.90;;;;;;;-4.60;100.00;99954.16;5010749;28;20029;-75
2023/02/11 01:05:39;;;;;;;1999.90;999.90;;;;;;;-4.55;100.00;99953.75;5010955;28;20383;-74
2023/02/11 01:08:05;;;;;;;1999.90;999.90;;;;;;;-4.67;100.00;99953.13;5011153;28;20034;-75
2023/02/11 01:10:31;;;;;;;1999.90;999.90;;;;;;;-4.63;100.00;99957.16;5011291;28;20029;-74
2023/02/11 01:12:57;;;;;;;1999.90;999.90;;;;;;;-4.62;100.00;99950.81;5010780;28;20053;-74
2023/02/11 01:15:22;;;;;;;1999.90;999.90;;;;;;;-4.60;100.00;99948.00;5010645;28;20144;-75
2023/02/11 01:17:47;;;;;;;1999.90;999.90;;;;;;;-4.64;100.00;99936.81;5010846;28;20065;-75
2023/02/11 01:20:17;;;;;;;1999.90;999.90;;;;;;;-4.72;100.00;99944.69;5010817;28;20030;-75
2023/02/11 01:22:42;;;;;;;1999.90;999.90;;;;;;;-4.71;100.00;99945.53;5012034;28;20061;-76
2023/02/11 01:25:08;;;;;;;1999.90;999.90;;;;;;;-4.72;100.00;99939.34;5011442;28;20442;-75
2023/02/11 01:27:34;;;;;;;1999.90;999.90;;;;;;;-4.68;100.00;99924.75;5011031;28;20042;-76
2023/02/11 01:30:00;;;;;;;1999.90;999.90;;;;;;;-4.74;100.00;99928.00;5010619;28;20528;-75
2023/02/11 01:32:25;;;;;;;1999.90;999.90;;;;;;;-4.68;100.00;99945.25;5010390;28;20034;-75
2023/02/11 01:34:50;;;;;;;1999.90;999.90;;;;;;;-4.78;100.00;99923.94;5010546;28;20050;-75
2023/02/11 01:37:16;;;;;;;1999.90;999.90;;;;;;;-4.86;100.00;99921.19;5010559;28;20092;-74
2023/02/11 01:39:41;;;;;;;1999.90;999.90;;;;;;;-4.82;100.00;99914.56;5010086;28;20069;-75
2023/02/11 01:42:07;;;;;;;1999.90;999.90;;;;;;;-4.88;100.00;99918.66;4992575;28;20088;-75
2023/02/11 01:44:36;;;;;;;1999.90;999.90;;;;;;;-4.95;100.00;99906.91;5010086;28;20038;-75
2023/02/11 01:47:03;;;;;;;1999.90;999.90;;;;;;;-4.90;100.00;99914.47;5010392;28;20049;-75
2023/02/11 01:49:35;;;;;;;1999.90;999.90;;;;;;;-4.80;100.00;99909.09;5010386;28;20033;-76
2023/02/11 01:52:08;;;;;;;1999.90;999.90;;;;;;;-4.94;100.00;99913.94;5010318;28;20112;-76
2023/02/11 01:57:25;;;;;;;1999.90;999.90;;;;;;;-4.99;100.00;99904.69;5011099;28;20036;-74
2023/02/11 02:00:11;;;;;;;1999.90;999.90;;;;;;;-5.06;100.00;99899.09;5010391;28;20022;-75
2023/02/11 02:03:05;;;;;;;1999.90;999.90;;;;;;;-5.13;100.00;99897.16;5011102;28;20030;-75
2023/02/11 02:05:30;;;;;;;1999.90;999.90;;;;;;;-5.00;100.00;99903.00;5013803;28;20028;-74
2023/02/11 02:08:06;;;;;;;1999.90;999.90;;;;;;;-5.02;100.00;99903.16;5013669;28;20614;-75
2023/02/11 02:10:34;;;;;;;1999.90;999.90;;;;;;;-5.04;100.00;99891.78;5013654;28;20033;-75
2023/02/11 02:12:59;;;;;;;1999.90;999.90;;;;;;;-5.16;100.00;99879.66;5013469;28;20112;-75
2023/02/11 02:15:34;;;;;;;1999.90;999.90;;;;;;;-5.21;100.00;99884.59;5013577;28;20446;-75
2023/02/11 02:18:20;;;;;;;1999.90;999.90;;;;;;;-5.03;100.00;99892.63;5013546;28;20053;-76
2023/02/11 02:21:13;;;;;;;1999.90;999.90;;;;;;;-5.15;100.00;99884.00;5013562;28;20022;-75
2023/02/11 02:23:48;;;;;;;1999.90;999.90;;;;;;;-5.17;100.00;99879.81;5014289;28;20453;-75
2023/02/11 02:26:35;;;;;;;1999.90;999.90;;;;;;;-5.24;100.00;99878.72;4995696;28;20038;-75
2023/02/11 02:29:42;;;;;;;1999.90;999.90;;;;;;;-5.17;100.00;99869.16;5013392;28;20030;-75
2023/02/11 02:32:26;;;;;;;1999.90;999.90;;;;;;;-5.09;100.00;99866.56;4992340;28;20495;-74
2023/02/11 02:35:25;;;;;;;1999.90;999.90;;;;;;;-5.10;100.00;99863.03;5013748;28;20419;-75
2023/02/11 02:38:19;;;;;;;1999.90;999.90;;;;;;;-5.26;100.00;99870.03;5013656;28;20169;-75
2023/02/11 02:40:50;;;;;;;1999.90;999.90;;;;;;;-5.45;100.00;99865.63;5013055;28;20041;-74
2023/02/11 02:43:16;;;;;;;1999.90;999.90;;;;;;;-5.50;100.00;99863.38;5013007;28;20117;-75
2023/02/11 02:45:42;;;;;;;1999.90;999.90;;;;;;;-5.61;100.00;99863.59;5013168;28;20022;-75
2023/02/11 02:48:27;;;;;;;1999.90;999.90;;;;;;;-5.35;100.00;99860.22;5012882;28;20048;-75
2023/02/11 02:51:22;;;;;;;1999.90;999.90;;;;;;;-5.34;100.00;99857.44;5012733;28;20029;-75
2023/02/11 02:54:02;;;;;;;1999.90;999.90;;;;;;;-5.41;100.00;99846.50;5012342;28;20065;-75
2023/02/11 02:56:45;;;;;;;1999.90;999.90;;;;;;;-5.40;100.00;99858.00;5012871;28;20109;-75
2023/02/11 03:00:05;;;;;;;1999.90;999.90;;;;;;;-5.36;100.00;99859.41;4995506;28;20457;-75
2023/02/11 03:03:11;;;;;;;1999.90;999.90;;;;;;;-5.36;100.00;99863.91;4952064;29;20628;-76
2023/02/11 03:05:46;;;;;;;1999.90;999.90;;;;;;;-5.31;100.00;99854.47;4990490;28;20066;-75
2023/02/11 03:08:18;;;;;;;1999.90;999.90;;;;;;;-5.56;100.00;99858.63;5012425;28;20505;-75
2023/02/11 03:10:50;;;;;;;1999.90;999.90;;;;;;;-5.43;100.00;99859.16;5012420;28;20050;-75
2023/02/11 03:13:19;;;;;;;1999.90;999.90;;;;;;;-5.48;100.00;99856.06;5012342;28;20084;-75
2023/02/11 03:15:49;;;;;;;1999.90;999.90;;;;;;;-5.44;100.00;99851.28;5011401;28;20026;-76
2023/02/11 03:18:18;;;;;;;1999.90;999.90;;;;;;;-5.55;100.00;99844.34;5012288;28;20076;-75
2023/02/11 03:20:46;;;;;;;1999.90;999.90;;;;;;;-5.67;100.00;99850.00;5012321;28;20022;-75
2023/02/11 03:23:17;;;;;;;1999.90;999.90;;;;;;;-5.67;100.00;99842.81;5012202;28;20018;-75
2023/02/11 03:25:51;;;;;;;1999.90;999.90;;;;;;;-5.61;100.00;99841.41;4994610;28;20033;-74
2023/02/11 03:28:28;;;;;;;1999.90;999.90;;;;;;;-5.51;100.00;99834.19;5012547;28;20482;-75
2023/02/11 03:31:22;;;;;;;1999.90;999.90;;;;;;;-5.63;100.00;99830.88;5012588;28;20034;-74
2023/02/11 03:34:01;;;;;;;1999.90;999.90;;;;;;;-5.60;100.00;99827.09;5006676;28;20046;-74
2023/02/11 03:36:37;;;;;;;1999.90;999.90;;;;;;;-5.69;100.00;99825.31;5012162;28;20049;-75
2023/02/11 03:39:05;;;;;;;1999.90;999.90;;;;;;;-5.61;100.00;99815.63;5011619;28;20652;-74
2023/02/11 03:41:32;;;;;;;1999.90;999.90;;;;;;;-5.71;100.00;99817.47;4994355;28;20115;-75
2023/02/11 03:43:58;;;;;;;1999.90;999.90;;;;;;;-5.63;100.00;99809.56;5012185;28;20061;-75
2023/02/11 03:46:31;;;;;;;1999.90;999.90;;;;;;;-5.60;100.00;99819.09;5012000;28;20033;-75
2023/02/11 03:49:03;;;;;;;1999.90;999.90;;;;;;;-5.56;100.00;99820.50;5013005;28;20022;-75
2023/02/11 03:51:31;;;;;;;1999.90;999.90;;;;;;;-5.60;100.00;99822.59;4993937;28;20089;-75
2023/02/11 03:54:00;;;;;;;1999.90;999.90;;;;;;;-5.65;100.00;99797.41;5012039;28;20022;-75
2023/02/11 03:56:31;;;;;;;1999.90;999.90;;;;;;;-5.70;100.00;99797.81;5011757;28;20022;-75
2023/02/11 03:58:57;;;;;;;1999.90;999.90;;;;;;;-5.63;100.00;99816.72;5012192;28;20026;-75
2023/02/11 04:01:22;;;;;;;1999.90;999.90;;;;;;;-5.66;100.00;99814.34;5011517;28;20028;-75
2023/02/11 04:03:48;;;;;;;1999.90;999.90;;;;;;;-5.71;100.00;99811.31;5011325;28;20017;-75
2023/02/11 04:06:13;;;;;;;1999.90;999.90;;;;;;;-5.75;100.00;99816.06;5011501;28;20113;-75
2023/02/11 04:08:38;;;;;;;1999.90;999.90;;;;;;;-5.70;100.00;99813.81;5011389;28;20501;-75
2023/02/11 04:11:04;;;;;;;1999.90;999.90;;;;;;;-5.77;100.00;99806.56;5011302;28;20022;-75
2023/02/11 04:13:29;;;;;;;1999.90;999.90;;;;;;;-5.74;100.00;99801.78;5011530;28;20025;-75
2023/02/11 04:15:55;;;;;;;1999.90;999.90;;;;;;;-5.72;100.00;99794.47;5011147;28;20105;-75
2023/02/11 04:18:20;;;;;;;1999.90;999.90;;;;;;;-5.75;100.00;99800.09;5011279;28;20041;-75
2023/02/11 04:20:46;;;;;;;1999.90;999.90;;;;;;;-5.60;100.00;99793.28;5011099;28;20056;-75
2023/02/11 04:23:11;;;;;;;1999.90;999.90;;;;;;;-5.60;100.00;99793.28;5011246;28;20033;-75
2023/02/11 04:25:37;;;;;;;1999.90;999.90;;;;;;;-5.68;100.00;99793.19;5010834;28;20442;-75
2023/02/11 04:28:02;;;;;;;1999.90;999.90;;;;;;;-5.69;100.00;99791.50;5011478;28;20025;-75
2023/02/11 04:30:28;;;;;;;1999.90;999.90;;;;;;;-5.63;100.00;99793.59;5011240;28;20486;-74
2023/02/11 04:32:53;;;;;;;1999.90;999.90;;;;;;;-5.58;100.00;99796.66;5011175;28;20017;-75
2023/02/11 04:35:19;;;;;;;1999.90;999.90;;;;;;;-5.68;100.00;99784.38;5010926;28;20486;-74
2023/02/11 04:37:44;;;;;;;1999.90;999.90;;;;;;;-5.66;100.00;99783.22;5010884;28;20061;-75
2023/02/11 04:40:10;;;;;;;1999.90;999.90;;;;;;;-5.58;100.00;99796.66;4993307;28;20022;-74
2023/02/11 04:42:35;;;;;;;1999.90;999.90;;;;;;;-5.53;100.00;99786.41;5010936;28;20064;-75
2023/02/11 04:45:01;;;;;;;1999.90;999.90;;;;;;;-5.70;100.00;99792.50;5010993;28;20026;-75
2023/02/11 04:47:26;;;;;;;1999.90;999.90;;;;;;;-5.78;100.00;99794.22;5010702;28;20025;-75
2023/02/11 04:49:51;;;;;;;1999.90;999.90;;;;;;;-5.84;100.00;99784.16;5010835;28;20120;-74
2023/02/11 04:52:17;;;;;;;1999.90;999.90;;;;;;;-5.83;100.00;99773.38;5010808;28;20026;-75
2023/02/11 04:54:42;;;;;;;1999.90;999.90;;;;;;;-5.90;100.00;99764.31;5010894;28;20029;-74
2023/02/11 04:57:08;;;;;;;1999.90;999.90;;;;;;;-5.90;100.00;99761.63;5011160;28;20026;-75
2023/02/11 04:59:33;;;;;;;1999.90;999.90;;;;;;;-5.88;100.00;99767.66;5011866;28;20045;-76
2023/02/11 05:01:58;;;;;;;1999.90;999.90;;;;;;;-5.89;100.00;99762.50;5011571;28;20513;-75
2023/02/11 05:04:24;;;;;;;1999.90;999.90;;;;;;;-5.99;100.00;99770.50;5010650;28;20041;-75
2023/02/11 05:06:49;;;;;;;1999.90;999.90;;;;;;;-5.85;100.00;99782.50;5010523;28;20144;-75
2023/02/11 05:09:15;;;;;;;1999.90;999.90;;;;;;;-6.01;100.00;99777.78;5010747;28;20064;-75
2023/02/11 05:11:41;;;;;;;1999.90;999.90;;;;;;;-5.85;100.00;99777.97;5010669;28;20033;-74
2023/02/11 05:14:06;;;;;;;1999.90;999.90;;;;;;;-5.82;100.00;99777.69;4993745;28;20033;-75
2023/02/11 05:16:32;;;;;;;1999.90;999.90;;;;;;;-5.91;100.00;99777.75;5010783;28;20048;-75
2023/02/11 05:18:58;;;;;;;1999.90;999.90;;;;;;;-6.00;100.00;99774.16;5010404;28;20479;-74
2023/02/11 05:21:23;;;;;;;1999.90;999.90;;;;;;;-6.01;100.00;99777.78;5010568;28;20022;-74
2023/02/11 05:23:49;;;;;;;1999.90;999.90;;;;;;;-6.02;100.00;99771.66;4992814;28;20037;-75
2023/02/11 05:26:14;;;;;;;1999.90;999.90;;;;;;;-6.13;100.00;99760.31;5010411;28;20026;-75
2023/02/11 05:28:40;;;;;;;1999.90;999.90;;;;;;;-6.08;100.00;99772.22;5010965;28;20030;-74
2023/02/11 05:31:06;;;;;;;1999.90;999.90;;;;;;;-6.08;100.00;99776.72;5010448;28;20114;-74
2023/02/11 05:33:32;;;;;;;1999.90;999.90;;;;;;;-6.05;100.00;99766.63;5010542;28;20112;-75
2023/02/11 05:35:59;;;;;;;1999.90;999.90;;;;;;;-6.08;100.00;99771.38;5010374;28;20486;-75
2023/02/11 05:38:25;;;;;;;1999.90;999.90;;;;;;;-6.16;100.00;99761.44;5012434;28;20049;-75
2023/02/11 05:40:50;;;;;;;1999.90;999.90;;;;;;;-6.08;100.00;99760.72;5014885;28;20026;-75
2023/02/11 05:43:15;;;;;;;1999.90;999.90;;;;;;;-6.10;100.00;99763.53;5015017;28;20038;-74
2023/02/11 05:45:41;;;;;;;1999.90;999.90;;;;;;;-6.08;100.00;99761.59;5014367;28;20026;-75
2023/02/11 05:48:06;;;;;;;1999.90;999.90;;;;;;;-6.05;100.00;99757.78;5013973;28;20026;-75
2023/02/11 05:50:31;;;;;;;1999.90;999.90;;;;;;;-6.07;100.00;99771.22;4996380;28;20061;-75
2023/02/11 05:52:57;;;;;;;1999.90;999.90;;;;;;;-6.03;100.00;99771.78;4996442;28;20029;-75
2023/02/11 05:55:22;;;;;;;1999.90;999.90;;;;;;;-6.17;100.00;99758.94;5013673;28;20178;-74
2023/02/11 05:57:47;;;;;;;1999.90;999.90;;;;;;;-6.06;100.00;99764.09;5013850;28;20030;-74
2023/02/11 06:00:13;;;;;;;1999.90;999.90;;;;;;;-6.07;100.00;99754.41;5014377;28;20022;-75
2023/02/11 06:02:39;;;;;;;1999.90;999.90;;;;;;;-6.12;100.00;99759.34;5013631;28;20137;-74
2023/02/11 06:05:05;;;;;;;1999.90;999.90;;;;;;;-6.06;100.00;99761.41;5013962;28;20163;-75
2023/02/11 06:07:30;;;;;;;1999.90;999.90;;;;;;;-6.08;100.00;99755.41;5013608;28;20126;-75
2023/02/11 06:09:56;;;;;;;1999.90;999.90;;;;;;;-6.10;100.00;99746.72;5013711;28;20029;-75
2023/02/11 06:12:22;;;;;;;1999.90;999.90;;;;;;;-6.01;100.00;99759.16;5013780;28;20135;-75
2023/02/11 06:14:47;;;;;;;1999.90;999.90;;;;;;;-6.12;100.00;99764.66;5015392;28;20550;-74
2023/02/11 06:17:12;;;;;;;1999.90;999.90;;;;;;;-6.07;100.00;99751.75;5015063;28;20030;-75
2023/02/11 06:19:38;;;;;;;1999.90;999.90;;;;;;;-6.04;100.00;99754.97;5015453;28;20026;-74
2023/02/11 06:22:03;;;;;;;1999.90;999.90;;;;;;;-5.92;100.00;99760.97;5013576;28;20030;-75
2023/02/11 06:24:29;;;;;;;1999.90;999.90;;;;;;;-5.91;100.00;99754.63;5013538;28;20026;-75
2023/02/11 06:26:54;;;;;;;1999.90;999.90;;;;;;;-5.83;100.00;99765.38;5013360;28;20076;-75
2023/02/11 06:29:19;;;;;;;1999.90;999.90;;;;;;;-5.85;100.00;99761.19;5013849;28;20113;-75
2023/02/11 06:31:45;;;;;;;1999.90;999.90;;;;;;;-5.70;100.00;99762.38;5013207;28;20030;-76
2023/02/11 06:34:10;;;;;;;1999.90;999.90;;;;;;;-5.63;100.00;99772.28;5013153;28;20014;-75
2023/02/11 06:36:38;;;;;;;1999.90;999.90;;;;;;;-5.53;100.00;99778.41;4995896;28;20523;-74
2023/02/11 06:39:04;;;;;;;1999.90;999.90;;;;;;;-5.41;100.00;99760.38;5013521;28;20038;-76
2023/02/11 06:41:29;;;;;;;1999.90;999.90;;;;;;;-5.22;100.00;99770.91;5013293;28;20061;-74
2023/02/11 06:43:55;;;;;;;1999.90;999.90;;;;;;;-5.05;100.00;99774.59;5013071;28;20022;-76
2023/02/11 06:46:20;;;;;;;1999.90;999.90;;;;;;;-5.03;100.00;99762.78;5012804;28;20014;-76
2023/02/11 06:48:45;;;;;;;1999.90;999.90;;;;;;;-4.79;100.00;99772.03;5012563;28;20542;-75
2023/02/11 06:51:13;;;;;;;1999.90;999.90;;;;;;;-4.59;100.00;99771.69;4995432;28;20018;-76
2023/02/11 06:53:41;;;;;;;1999.90;999.90;;;;;;;-4.30;100.00;99770.59;5013109;28;20422;-77
2023/02/11 06:56:10;;;;;;;1999.90;999.90;;;;;;;-4.01;100.00;99771.13;5013042;28;20426;-75
2023/02/11 06:58:36;;;;;;;1999.90;999.90;;;;;;;-3.89;100.00;99767.19;5013023;28;20025;-74
2023/02/11 07:01:06;;;;;;;1999.90;999.90;;;;;;;-3.83;100.00;99761.19;5013172;28;20626;-75
2023/02/11 07:03:37;;;;;;;1999.90;999.90;;;;;;;-3.81;100.00;99773.41;5012732;28;20121;-75
2023/02/11 07:06:04;;;;;;;1999.90;999.90;;;;;;;-3.54;100.00;99771.53;5012516;28;20513;-75
2023/02/11 07:08:30;;;;;;;1999.90;999.90;;;;;;;-3.33;100.00;99758.56;5012555;28;20092;-76
2023/02/11 07:10:55;;;;;;;1999.90;999.90;;;;;;;-2.99;100.00;99771.88;4994913;28;20030;-76
2023/02/11 07:13:21;;;;;;;1999.90;999.90;;;;;;;-2.48;100.00;99771.59;5012557;28;20506;-75
2023/02/11 07:15:46;;;;;;;1999.90;999.90;;;;;;;-2.35;100.00;99777.25;5012383;28;20074;-75
2023/02/11 07:18:11;;;;;;;1999.90;999.90;;;;;;;-2.20;100.00;99766.72;5012443;28;20038;-75
2023/02/11 07:20:37;;;;;;;1999.90;999.90;;;;;;;-1.99;100.00;99763.50;5012628;28;20117;-75
2023/02/11 07:23:03;;;;;;;1999.90;999.90;;;;;;;-2.30;100.00;99748.13;4994982;28;20116;-75
2023/02/11 07:25:29;;;;;;;1999.90;999.90;;;;;;;-2.14;100.00;99759.84;5012640;28;20038;-76
2023/02/11 07:27:54;;;;;;;1999.90;999.90;;;;;;;-2.27;100.00;99771.91;5012134;28;20030;-75
2023/02/11 07:30:20;;;;;;;1999.90;999.90;;;;;;;-2.17;100.00;99779.78;5012564;28;20057;-75
2023/02/11 07:32:45;;;;;;;1999.90;999.90;;;;;;;-1.48;100.00;99786.31;5012354;28;20080;-75
2023/02/11 07:35:11;;;;;;;1999.90;999.90;;;;;;;-0.58;100.00;99789.19;5012612;28;20097;-75
2023/02/11 07:37:36;;;;;;;1999.90;999.90;;;;;;;-0.27;100.00;99799.88;5012317;28;20169;-75
2023/02/11 07:40:02;;;;;;;1999.90;999.90;;;;;;;-0.22;100.00;99789.41;5012206;28;20030;-74
2023/02/11 07:42:28;;;;;;;1999.90;999.90;;;;;;;-0.07;100.00;99790.28;5012259;28;20487;-76
2023/02/11 07:44:53;;;;;;;1999.90;999.90;;;;;;;1.17;98.51;99782.28;5012648;28;20080;-76
2023/02/11 07:47:18;;;;;;;1999.90;999.90;;;;;;;1.96;88.62;99783.06;5013682;28;20055;-78
2023/02/11 07:49:44;;;;;;;1999.90;999.90;;;;;;;3.01;81.72;99784.53;5012715;28;20030;-76
2023/02/11 07:52:10;;;;;;;1999.90;999.90;;;;;;;3.71;78.16;99794.97;5011929;28;20030;-76
2023/02/11 07:54:35;;;;;;;1999.90;999.90;;;;;;;4.40;68.65;99794.56;5011730;28;20030;-75
2023/02/11 07:57:00;;;;;;;1999.90;999.90;;;;;;;4.91;65.35;99791.13;5011733;28;20033;-77
2023/02/11 07:59:26;;;;;;;1999.90;999.90;;;;;;;4.62;66.02;99795.16;5011596;28;20026;-76
2023/02/11 08:01:51;;;;;;;1999.90;999.90;;;;;;;6.29;59.84;99797.44;5011404;28;20077;-77
2023/02/11 08:04:17;;;;;;;1999.90;999.90;;;;;;;6.00;60.78;99786.38;5014049;28;20061;-75
2023/02/11 08:06:42;;;;;;;1999.90;999.90;;;;;;;4.88;60.74;99780.69;4995601;28;20038;-75
2023/02/11 08:09:13;;;;;;;1999.90;999.90;;;;;;;3.78;65.17;99781.44;5011607;28;20052;-75
2023/02/11 08:11:39;;;;;;;1999.90;999.90;;;;;;;5.20;61.56;99779.75;5011519;28;20018;-74
2023/02/11 08:14:04;;;;;;;1999.90;999.90;;;;;;;5.03;60.63;99781.25;5011310;28;20382;-75
2023/02/11 08:16:32;;;;;;;1999.90;999.90;;;;;;;6.28;56.80;99784.88;5011397;28;20486;-76
2023/02/11 08:19:01;;;;;;;1999.90;999.90;;;;;;;4.75;59.61;99781.56;5011261;28;20029;-75
2023/02/11 08:21:26;;;;;;;1999.90;999.90;;;;;;;3.92;62.47;99769.56;5011313;28;20022;-75
2023/02/11 08:23:52;;;;;;;1999.90;999.90;;;;;;;3.07;65.64;99759.41;5011294;28;20073;-75
2023/02/11 08:26:20;;;;;;;1999.90;999.90;;;;;;;2.90;68.06;99782.44;5011114;28;20153;-75
2023/02/11 08:28:47;;;;;;;1999.90;999.90;;;;;;;2.55;69.88;99799.69;5011079;28;20438;-75
2023/02/11 08:31:16;;;;;;;1999.90;999.90;;;;;;;2.42;71.04;99803.13;5011626;28;20069;-76
2023/02/11 08:33:41;;;;;;;1999.90;999.90;;;;;;;2.12;73.41;99780.09;5011176;28;20030;-76
2023/02/11 08:36:12;;;;;;;1999.90;999.90;;;;;;;1.91;73.44;99780.94;5011104;28;20052;-75
2023/02/11 08:38:37;;;;;;;1999.90;999.90;;;;;;;1.70;74.58;99774.72;5011003;28;20050;-77
2023/02/11 08:41:04;;;;;;;1999.90;999.90;;;;;;;1.46;75.56;99765.19;5011038;28;20030;-75
2023/02/11 08:43:32;;;;;;;1999.90;999.90;;;;;;;1.82;75.22;99763.22;5010514;28;20056;-76
2023/02/11 08:45:59;;;;;;;1999.90;999.90;;;;;;;3.78;68.46;99779.56;5011254;28;20382;-77
2023/02/11 08:48:25;;;;;;;1999.90;999.90;;;;;;;4.38;63.68;99771.44;5009946;28;20046;-77
2023/02/11 08:50:50;;;;;;;1999.90;999.90;;;;;;;3.61;64.45;99769.31;4993396;28;20096;-75
2023/02/11 08:53:16;;;;;;;1999.90;999.90;;;;;;;2.36;69.21;99768.81;4993701;28;20125;-75
2023/02/11 08:55:48;;;;;;;1999.90;999.90;;;;;;;1.94;73.22;99742.78;5011042;28;20045;-73
2023/02/11 08:58:13;;;;;;;1999.90;999.90;;;;;;;1.33;75.85;99746.16;5010866;28;20499;-74
2023/02/11 09:00:39;;;;;;;1999.90;999.90;;;;;;;2.27;72.94;99763.78;4993396;28;20025;-77
2023/02/11 09:03:04;;;;;;;1999.90;999.90;;;;;;;4.67;64.73;99762.81;5011190;28;20104;-74
2023/02/11 09:05:29;;;;;;;1999.90;999.90;;;;;;;6.26;57.65;99775.31;5010610;28;20022;-75
2023/02/11 09:07:55;;;;;;;1999.90;999.90;;;;;;;8.39;50.41;99774.84;5010656;28;20401;-75
2023/02/11 09:10:20;;;;;;;1999.90;999.90;;;;;;;9.14;46.50;99783.91;5010575;28;20478;-75
2023/02/11 09:12:45;;;;;;;1999.90;999.90;;;;;;;8.81;46.49;99770.06;5013649;28;20450;-74
2023/02/11 09:15:11;;;;;;;1999.90;999.90;;;;;;;7.73;48.35;99772.31;5014741;28;20037;-75
2023/02/11 09:17:36;;;;;;;1999.90;999.90;;;;;;;8.35;46.39;99760.00;5015100;28;20049;-75
2023/02/11 09:20:02;;;;;;;1999.90;999.90;;;;;;;9.16;45.43;99757.19;5014773;28;20042;-75
2023/02/11 09:22:28;;;;;;;1999.90;999.90;;;;;;;8.31;45.87;99759.63;5014984;28;20406;-75
2023/02/11 09:24:53;;;;;;;1999.90;999.90;;;;;;;6.31;50.14;99751.84;5015649;28;20034;-78
2023/02/11 09:27:18;;;;;;;1999.90;999.90;;;;;;;5.79;52.34;99757.69;5015010;28;20100;-76
2023/02/11 09:29:44;;;;;;;1999.90;999.90;;;;;;;5.11;55.32;99743.03;5014496;28;20104;-75
2023/02/11 09:32:09;;;;;;;1999.90;999.90;;;;;;;4.46;58.83;99750.38;5014785;28;20022;-75
2023/02/11 09:34:34;;;;;;;1999.90;999.90;;;;;;;3.72;60.66;99752.50;5014639;28;20378;-75
2023/02/11 09:37:00;;;;;;;1999.90;999.90;;;;;;;3.92;60.64;99758.75;5014453;28;20026;-75
2023/02/11 09:39:26;;;;;;;1999.90;999.90;;;;;;;3.08;63.75;99752.97;5014686;28;20053;-74
2023/02/11 09:42:14;;;;;;;1999.90;999.90;;;;;;;2.90;65.42;99750.00;5014810;28;20030;-76
2023/02/11 09:44:43;;;;;;;1999.90;999.90;;;;;;;2.88;65.72;99746.66;5014353;28;20067;-74
2023/02/11 09:47:32;;;;;;;1999.90;999.90;;;;;;;3.67;63.22;99741.44;5014364;28;20077;-74
2023/02/11 09:50:15;;;;;;;1999.90;999.90;;;;;;;3.40;64.01;99742.47;5014127;28;20029;-76
2023/02/11 09:52:50;;;;;;;1999.90;999.90;;;;;;;4.00;62.10;99750.44;5012215;28;20474;-74
2023/02/11 09:55:19;;;;;;;;;;;;;;;4.29;60.66;99747.25;5012598;28;20083;-74
2023/02/11 09:57:45;;;;;;;1999.90;999.90;;;;;;;3.99;61.67;99735.22;5012291;28;20325;-75
2023/02/11 10:00:52;;;;;;;1999.90;999.90;;;;;;;3.87;63.00;99739.59;5013469;28;20041;-75
2023/02/11 10:03:41;;;;;;;1999.90;999.90;;;;;;;4.35;60.53;99737.47;4976787;28;20052;-75
2023/02/11 10:06:40;;;;;;;1999.90;999.90;;;;;;;4.26;60.65;99733.34;5013867;28;20120;-75
2023/02/11 10:09:21;;;;;;;1999.90;999.90;;;;;;;4.57;59.76;99735.34;5008279;28;20042;-75
2023/02/11 10:12:11;;;;;;;1999.90;999.90;;;;;;;4.64;59.76;99746.97;5013488;28;20057;-75
2023/02/11 10:15:01;;;;;;;1999.90;999.90;;;;;;;5.36;57.64;99744.78;4997212;28;20022;-74
2023/02/11 10:17:42;;;;;;;1999.90;999.90;;;;;;;5.04;59.61;99736.84;4995607;28;20509;-75
2023/02/11 10:20:41;;;;;;;1999.90;999.90;;;;;;;4.30;63.03;99735.38;5012962;28;20467;-75
2023/02/11 10:23:14;;;;;;;1999.90;999.90;;;;;;;4.44;62.89;99729.94;5012404;28;20478;-75
2023/02/11 10:25:44;;;;;;;1999.90;999.90;;;;;;;3.49;65.67;99725.00;5012868;28;20048;-75
2023/02/11 10:28:17;;;;;;;1999.90;999.90;;;;;;;3.52;66.74;99716.47;4995129;28;20034;-75
2023/02/11 10:31:20;;;;;;;1999.90;999.90;;;;;;;3.86;65.85;99715.44;5013029;28;20490;-75
2023/02/11 10:33:57;;;;;;;1999.90;999.90;;;;;;;4.03;64.42;99708.56;5012411;28;20494;-75
2023/02/11 10:36:27;;;;;;;1999.90;999.90;;;;;;;3.93;63.71;99665.69;5012350;28;20478;-75
2023/02/11 10:38:53;;;;;;;1999.90;999.90;;;;;;;3.96;63.54;99678.78;4999513;28;20132;-75
2023/02/11 10:41:29;;;;;;;1999.90;999.90;;;;;;;3.95;63.80;99677.13;5012703;28;20110;-75
2023/02/11 10:43:55;;;;;;;1999.90;999.90;;;;;;;3.61;64.99;99670.06;5012509;28;20058;-75
2023/02/11 10:46:25;;;;;;;1999.90;999.90;;;;;;;3.63;64.20;99669.88;5012453;28;20030;-74
2023/02/11 10:48:52;;;;;;;1999.90;999.90;;;;;;;3.50;64.52;99664.47;5013462;28;20022;-76
2023/02/11 10:51:28;;;;;;;1999.90;999.90;;;;;;;3.37;64.51;99665.28;5015611;28;20026;-75
2023/02/11 10:54:02;;;;;;;1999.90;999.90;;;;;;;3.53;65.55;99666.75;5012694;28;20042;-74
2023/02/11 10:56:30;;;;;;;1999.90;999.90;;;;;;;3.72;64.18;99665.91;5011857;28;20045;-75
2023/02/11 10:59:20;;;;;;;1999.90;999.90;;;;;;;3.62;63.73;99657.38;5012436;28;20533;-75
2023/02/11 11:01:48;;;;;;;1999.90;999.90;;;;;;;3.26;66.16;99655.06;5000830;28;20490;-76
2023/02/11 11:04:44;;;;;;;1999.90;999.90;;;;;;;3.31;65.83;99659.88;5011066;28;20045;-75